sensor_id;sensor_type;location;lat;lon;timestamp;P1;durP1;ratioP1;P2;durP2;ratioP2
66380;SDS011;53177;52.648;1.214;2023-07-13T00:01:24;7.72;;;3.20;;
66380;SDS011;53177;52.648;1.214;2023-07-13T00:03:50;9.47;;;3.13;;
66380;SDS011;53177;52.648;1.214;2023-07-13T00:06:15;7.57;;;2.95;;
66380;SDS011;53177;52.648;1.214;2023-07-13T00:08:41;8.40;;;3.43;;
66380;SDS011;53177;52.648;1.214;2023-07-13T00:11:06;7.47;;;3.00;;
66380;SDS011;53177;52.648;1.214;2023-07-13T00:13:32;8.53;;;3.00;;
66380;SDS011;53177;52.648;1.214;2023-07-13T00:15:58;10.93;;;3.23;;
66380;SDS011;53177;52.648;1.214;2023-07-13T00:18:23;8.02;;;3.13;;
66380;SDS011;53177;52.648;1.214;2023-07-13T00:20:49;9.38;;;3.08;;
66380;SDS011;53177;52.648;1.214;2023-07-13T00:23:15;7.13;;;2.80;;
66380;SDS011;53177;52.648;1.214;2023-07-13T00:25:42;10.32;;;3.30;;
66380;SDS011;53177;52.648;1.214;2023-07-13T00:28:07;6.97;;;2.97;;
66380;SDS011;53177;52.648;1.214;2023-07-13T00:30:33;9.37;;;3.20;;
66380;SDS011;53177;52.648;1.214;2023-07-13T00:32:58;8.27;;;3.25;;
66380;SDS011;53177;52.648;1.214;2023-07-13T00:35:26;8.90;;;3.28;;
66380;SDS011;53177;52.648;1.214;2023-07-13T00:37:51;9.20;;;3.13;;
66380;SDS011;53177;52.648;1.214;2023-07-13T00:40:17;7.33;;;3.03;;
66380;SDS011;53177;52.648;1.214;2023-07-13T00:42:43;11.18;;;3.30;;
66380;SDS011;53177;52.648;1.214;2023-07-13T00:47:40;9.73;;;3.05;;
66380;SDS011;53177;52.648;1.214;2023-07-13T00:50:06;8.20;;;2.90;;
66380;SDS011;53177;52.648;1.214;2023-07-13T00:52:36;9.90;;;3.20;;
66380;SDS011;53177;52.648;1.214;2023-07-13T00:55:05;8.13;;;3.05;;
66380;SDS011;53177;52.648;1.214;2023-07-13T00:57:31;8.93;;;2.92;;
66380;SDS011;53177;52.648;1.214;2023-07-13T00:59:57;7.93;;;3.00;;
66380;SDS011;53177;52.648;1.214;2023-07-13T01:02:25;10.80;;;3.28;;
66380;SDS011;53177;52.648;1.214;2023-07-13T01:04:51;9.85;;;2.92;;
66380;SDS011;53177;52.648;1.214;2023-07-13T01:07:16;9.07;;;3.50;;
66380;SDS011;53177;52.648;1.214;2023-07-13T01:09:43;8.25;;;3.35;;
66380;SDS011;53177;52.648;1.214;2023-07-13T01:12:10;9.85;;;3.72;;
66380;SDS011;53177;52.648;1.214;2023-07-13T01:14:35;11.07;;;3.33;;
66380;SDS011;53177;52.648;1.214;2023-07-13T01:17:01;7.18;;;3.08;;
66380;SDS011;53177;52.648;1.214;2023-07-13T01:19:41;10.57;;;3.50;;
66380;SDS011;53177;52.648;1.214;2023-07-13T01:22:11;8.63;;;3.13;;
66380;SDS011;53177;52.648;1.214;2023-07-13T01:24:39;9.05;;;3.53;;
66380;SDS011;53177;52.648;1.214;2023-07-13T01:27:06;8.80;;;3.30;;
66380;SDS011;53177;52.648;1.214;2023-07-13T01:29:33;11.52;;;3.50;;
66380;SDS011;53177;52.648;1.214;2023-07-13T01:32:10;7.60;;;3.22;;
66380;SDS011;53177;52.648;1.214;2023-07-13T01:34:37;9.80;;;3.58;;
66380;SDS011;53177;52.648;1.214;2023-07-13T01:37:05;11.00;;;3.50;;
66380;SDS011;53177;52.648;1.214;2023-07-13T01:39:30;10.05;;;3.90;;
66380;SDS011;53177;52.648;1.214;2023-07-13T01:41:56;9.88;;;3.70;;
66380;SDS011;53177;52.648;1.214;2023-07-13T01:44:22;10.87;;;3.57;;
66380;SDS011;53177;52.648;1.214;2023-07-13T01:46:47;7.50;;;3.10;;
66380;SDS011;53177;52.648;1.214;2023-07-13T01:49:13;9.63;;;3.80;;
66380;SDS011;53177;52.648;1.214;2023-07-13T01:51:38;10.38;;;3.50;;
66380;SDS011;53177;52.648;1.214;2023-07-13T01:54:03;8.17;;;3.23;;
66380;SDS011;53177;52.648;1.214;2023-07-13T01:56:29;10.90;;;3.40;;
66380;SDS011;53177;52.648;1.214;2023-07-13T01:58:54;9.60;;;3.50;;
66380;SDS011;53177;52.648;1.214;2023-07-13T02:01:19;10.67;;;3.90;;
66380;SDS011;53177;52.648;1.214;2023-07-13T02:03:45;9.60;;;3.57;;
66380;SDS011;53177;52.648;1.214;2023-07-13T02:06:11;9.18;;;3.42;;
66380;SDS011;53177;52.648;1.214;2023-07-13T02:08:37;9.27;;;3.58;;
66380;SDS011;53177;52.648;1.214;2023-07-13T02:11:02;8.57;;;3.20;;
66380;SDS011;53177;52.648;1.214;2023-07-13T02:13:28;8.88;;;3.45;;
66380;SDS011;53177;52.648;1.214;2023-07-13T02:15:54;11.00;;;3.65;;
66380;SDS011;53177;52.648;1.214;2023-07-13T02:18:19;10.83;;;3.70;;
66380;SDS011;53177;52.648;1.214;2023-07-13T02:20:45;9.10;;;3.67;;
66380;SDS011;53177;52.648;1.214;2023-07-13T02:23:11;8.43;;;3.50;;
66380;SDS011;53177;52.648;1.214;2023-07-13T02:25:36;12.45;;;4.07;;
66380;SDS011;53177;52.648;1.214;2023-07-13T02:28:02;8.77;;;3.50;;
66380;SDS011;53177;52.648;1.214;2023-07-13T02:30:28;8.45;;;3.80;;
66380;SDS011;53177;52.648;1.214;2023-07-13T02:32:55;10.30;;;3.60;;
66380;SDS011;53177;52.648;1.214;2023-07-13T02:35:20;10.25;;;4.18;;
66380;SDS011;53177;52.648;1.214;2023-07-13T02:37:46;10.00;;;3.95;;
66380;SDS011;53177;52.648;1.214;2023-07-13T02:40:12;7.83;;;3.90;;
66380;SDS011;53177;52.648;1.214;2023-07-13T02:42:38;10.00;;;4.30;;
66380;SDS011;53177;52.648;1.214;2023-07-13T02:45:04;8.17;;;3.33;;
66380;SDS011;53177;52.648;1.214;2023-07-13T02:47:31;10.35;;;4.68;;
66380;SDS011;53177;52.648;1.214;2023-07-13T02:49:57;8.23;;;3.90;;
66380;SDS011;53177;52.648;1.214;2023-07-13T02:52:22;9.30;;;3.63;;
66380;SDS011;53177;52.648;1.214;2023-07-13T02:54:48;9.67;;;4.10;;
66380;SDS011;53177;52.648;1.214;2023-07-13T02:57:13;8.67;;;3.83;;
66380;SDS011;53177;52.648;1.214;2023-07-13T02:59:39;8.75;;;3.92;;
66380;SDS011;53177;52.648;1.214;2023-07-13T03:02:04;9.53;;;3.80;;
66380;SDS011;53177;52.648;1.214;2023-07-13T03:04:30;11.33;;;3.83;;
66380;SDS011;53177;52.648;1.214;2023-07-13T03:06:55;8.50;;;3.63;;
66380;SDS011;53177;52.648;1.214;2023-07-13T03:09:24;9.50;;;3.70;;
66380;SDS011;53177;52.648;1.214;2023-07-13T03:11:54;10.98;;;3.80;;
66380;SDS011;53177;52.648;1.214;2023-07-13T03:14:22;8.77;;;3.60;;
66380;SDS011;53177;52.648;1.214;2023-07-13T03:16:51;10.15;;;3.90;;
66380;SDS011;53177;52.648;1.214;2023-07-13T03:19:28;9.20;;;3.47;;
66380;SDS011;53177;52.648;1.214;2023-07-13T03:21:56;11.52;;;3.97;;
66380;SDS011;53177;52.648;1.214;2023-07-13T03:24:28;7.80;;;3.30;;
66380;SDS011;53177;52.648;1.214;2023-07-13T03:26:57;10.30;;;3.92;;
66380;SDS011;53177;52.648;1.214;2023-07-13T03:29:33;9.07;;;3.90;;
66380;SDS011;53177;52.648;1.214;2023-07-13T03:32:04;8.33;;;3.90;;
66380;SDS011;53177;52.648;1.214;2023-07-13T03:34:32;9.13;;;3.65;;
66380;SDS011;53177;52.648;1.214;2023-07-13T03:36:58;11.35;;;3.85;;
66380;SDS011;53177;52.648;1.214;2023-07-13T03:39:34;10.40;;;4.32;;
66380;SDS011;53177;52.648;1.214;2023-07-13T03:41:59;10.35;;;4.00;;
66380;SDS011;53177;52.648;1.214;2023-07-13T03:44:25;10.13;;;4.33;;
66380;SDS011;53177;52.648;1.214;2023-07-13T03:46:50;12.27;;;4.30;;
66380;SDS011;53177;52.648;1.214;2023-07-13T03:49:15;9.00;;;4.10;;
66380;SDS011;53177;52.648;1.214;2023-07-13T03:51:41;10.33;;;4.03;;
66380;SDS011;53177;52.648;1.214;2023-07-13T03:54:06;10.67;;;4.83;;
66380;SDS011;53177;52.648;1.214;2023-07-13T03:56:32;10.55;;;4.38;;
66380;SDS011;53177;52.648;1.214;2023-07-13T03:58:58;11.70;;;4.47;;
66380;SDS011;53177;52.648;1.214;2023-07-13T04:01:23;11.20;;;4.10;;
66380;SDS011;53177;52.648;1.214;2023-07-13T04:03:52;9.57;;;4.13;;
66380;SDS011;53177;52.648;1.214;2023-07-13T04:06:21;9.73;;;4.43;;
66380;SDS011;53177;52.648;1.214;2023-07-13T04:08:50;11.15;;;4.30;;
66380;SDS011;53177;52.648;1.214;2023-07-13T04:11:17;11.35;;;4.22;;
66380;SDS011;53177;52.648;1.214;2023-07-13T04:13:44;10.90;;;4.38;;
66380;SDS011;53177;52.648;1.214;2023-07-13T04:16:10;12.43;;;4.85;;
66380;SDS011;53177;52.648;1.214;2023-07-13T04:18:35;12.88;;;4.85;;
66380;SDS011;53177;52.648;1.214;2023-07-13T04:21:01;11.50;;;4.53;;
66380;SDS011;53177;52.648;1.214;2023-07-13T04:23:26;12.00;;;4.67;;
66380;SDS011;53177;52.648;1.214;2023-07-13T04:25:52;10.82;;;4.50;;
66380;SDS011;53177;52.648;1.214;2023-07-13T04:28:22;13.00;;;4.75;;
66380;SDS011;53177;52.648;1.214;2023-07-13T04:30:49;12.20;;;4.65;;
66380;SDS011;53177;52.648;1.214;2023-07-13T04:33:14;15.65;;;5.57;;
66380;SDS011;53177;52.648;1.214;2023-07-13T04:35:41;13.40;;;5.20;;
66380;SDS011;53177;52.648;1.214;2023-07-13T04:38:08;14.67;;;5.20;;
66380;SDS011;53177;52.648;1.214;2023-07-13T04:40:36;11.07;;;4.65;;
66380;SDS011;53177;52.648;1.214;2023-07-13T04:43:02;13.75;;;4.75;;
66380;SDS011;53177;52.648;1.214;2023-07-13T04:45:27;10.40;;;4.90;;
66380;SDS011;53177;52.648;1.214;2023-07-13T04:47:52;12.57;;;5.30;;
66380;SDS011;53177;52.648;1.214;2023-07-13T04:50:18;11.90;;;5.25;;
66380;SDS011;53177;52.648;1.214;2023-07-13T04:52:48;15.80;;;5.30;;
66380;SDS011;53177;52.648;1.214;2023-07-13T04:55:15;12.13;;;5.15;;
66380;SDS011;53177;52.648;1.214;2023-07-13T04:57:40;11.20;;;5.17;;
66380;SDS011;53177;52.648;1.214;2023-07-13T05:00:06;15.30;;;5.53;;
66380;SDS011;53177;52.648;1.214;2023-07-13T05:02:33;14.50;;;5.90;;
66380;SDS011;53177;52.648;1.214;2023-07-13T05:04:59;15.30;;;5.60;;
66380;SDS011;53177;52.648;1.214;2023-07-13T05:07:25;13.88;;;5.88;;
66380;SDS011;53177;52.648;1.214;2023-07-13T05:09:51;17.10;;;5.97;;
66380;SDS011;53177;52.648;1.214;2023-07-13T05:12:17;15.13;;;5.77;;
66380;SDS011;53177;52.648;1.214;2023-07-13T05:14:43;14.50;;;6.43;;
66380;SDS011;53177;52.648;1.214;2023-07-13T05:17:08;17.00;;;6.20;;
66380;SDS011;53177;52.648;1.214;2023-07-13T05:19:34;16.35;;;5.82;;
66380;SDS011;53177;52.648;1.214;2023-07-13T05:21:59;15.97;;;6.03;;
66380;SDS011;53177;52.648;1.214;2023-07-13T05:24:25;16.03;;;6.37;;
66380;SDS011;53177;52.648;1.214;2023-07-13T05:26:50;17.08;;;6.93;;
66380;SDS011;53177;52.648;1.214;2023-07-13T05:29:16;15.47;;;6.43;;
66380;SDS011;53177;52.648;1.214;2023-07-13T05:31:41;14.90;;;6.53;;
66380;SDS011;53177;52.648;1.214;2023-07-13T05:34:07;16.90;;;6.20;;
66380;SDS011;53177;52.648;1.214;2023-07-13T05:36:32;13.40;;;5.70;;
66380;SDS011;53177;52.648;1.214;2023-07-13T05:38:58;15.67;;;5.27;;
66380;SDS011;53177;52.648;1.214;2023-07-13T05:41:23;12.10;;;5.43;;
66380;SDS011;53177;52.648;1.214;2023-07-13T05:43:48;14.60;;;4.90;;
66380;SDS011;53177;52.648;1.214;2023-07-13T05:46:14;11.57;;;5.33;;
66380;SDS011;53177;52.648;1.214;2023-07-13T05:48:39;12.03;;;5.10;;
66380;SDS011;53177;52.648;1.214;2023-07-13T05:51:05;14.02;;;5.38;;
66380;SDS011;53177;52.648;1.214;2023-07-13T05:53:31;14.33;;;5.10;;
66380;SDS011;53177;52.648;1.214;2023-07-13T05:55:56;11.77;;;4.80;;
66380;SDS011;53177;52.648;1.214;2023-07-13T05:58:21;19.58;;;6.65;;
66380;SDS011;53177;52.648;1.214;2023-07-13T06:00:47;14.90;;;6.03;;
66380;SDS011;53177;52.648;1.214;2023-07-13T06:03:13;12.13;;;5.35;;
66380;SDS011;53177;52.648;1.214;2023-07-13T06:05:41;16.70;;;5.30;;
66380;SDS011;53177;52.648;1.214;2023-07-13T06:08:07;12.90;;;5.47;;
66380;SDS011;53177;52.648;1.214;2023-07-13T06:10:33;13.43;;;5.45;;
66380;SDS011;53177;52.648;1.214;2023-07-13T06:12:59;12.98;;;5.47;;
66380;SDS011;53177;52.648;1.214;2023-07-13T06:15:24;13.07;;;5.83;;
66380;SDS011;53177;52.648;1.214;2023-07-13T06:17:50;15.30;;;5.70;;
66380;SDS011;53177;52.648;1.214;2023-07-13T06:20:16;15.27;;;5.10;;
66380;SDS011;53177;52.648;1.214;2023-07-13T06:22:42;10.85;;;4.70;;
66380;SDS011;53177;52.648;1.214;2023-07-13T06:25:07;8.47;;;5.30;;
66380;SDS011;53177;52.648;1.214;2023-07-13T06:27:33;9.82;;;5.10;;
66380;SDS011;53177;52.648;1.214;2023-07-13T06:29:59;10.53;;;5.37;;
66380;SDS011;53177;52.648;1.214;2023-07-13T06:32:24;12.57;;;4.50;;
66380;SDS011;53177;52.648;1.214;2023-07-13T06:34:49;12.88;;;4.90;;
66380;SDS011;53177;52.648;1.214;2023-07-13T06:37:16;10.00;;;4.37;;
66380;SDS011;53177;52.648;1.214;2023-07-13T06:39:42;11.93;;;4.70;;
66380;SDS011;53177;52.648;1.214;2023-07-13T06:42:08;11.63;;;4.70;;
66380;SDS011;53177;52.648;1.214;2023-07-13T06:44:33;11.00;;;4.60;;
66380;SDS011;53177;52.648;1.214;2023-07-13T06:46:59;10.23;;;4.60;;
66380;SDS011;53177;52.648;1.214;2023-07-13T06:49:24;11.30;;;4.60;;
66380;SDS011;53177;52.648;1.214;2023-07-13T06:51:50;11.93;;;4.67;;
66380;SDS011;53177;52.648;1.214;2023-07-13T06:54:15;11.73;;;4.93;;
66380;SDS011;53177;52.648;1.214;2023-07-13T06:56:40;9.23;;;4.78;;
66380;SDS011;53177;52.648;1.214;2023-07-13T06:59:06;9.60;;;4.93;;
66380;SDS011;53177;52.648;1.214;2023-07-13T07:01:31;10.97;;;5.07;;
66380;SDS011;53177;52.648;1.214;2023-07-13T07:03:56;10.47;;;5.30;;
66380;SDS011;53177;52.648;1.214;2023-07-13T07:06:22;11.20;;;4.83;;
66380;SDS011;53177;52.648;1.214;2023-07-13T07:08:51;10.55;;;5.43;;
66380;SDS011;53177;52.648;1.214;2023-07-13T07:11:18;13.50;;;4.88;;
66380;SDS011;53177;52.648;1.214;2023-07-13T07:13:48;11.00;;;4.70;;
66380;SDS011;53177;52.648;1.214;2023-07-13T07:16:14;10.85;;;4.93;;
66380;SDS011;53177;52.648;1.214;2023-07-13T07:18:40;11.60;;;4.93;;
66380;SDS011;53177;52.648;1.214;2023-07-13T07:21:06;13.53;;;5.30;;
66380;SDS011;53177;52.648;1.214;2023-07-13T07:23:31;10.60;;;4.60;;
66380;SDS011;53177;52.648;1.214;2023-07-13T07:25:57;10.03;;;4.53;;
66380;SDS011;53177;52.648;1.214;2023-07-13T07:28:23;10.13;;;4.15;;
66380;SDS011;53177;52.648;1.214;2023-07-13T07:30:48;10.63;;;4.33;;
66380;SDS011;53177;52.648;1.214;2023-07-13T07:33:17;10.88;;;4.22;;
66380;SDS011;53177;52.648;1.214;2023-07-13T07:35:42;8.67;;;4.40;;
66380;SDS011;53177;52.648;1.214;2023-07-13T07:38:09;9.20;;;4.07;;
66380;SDS011;53177;52.648;1.214;2023-07-13T07:40:40;11.00;;;5.07;;
66380;SDS011;53177;52.648;1.214;2023-07-13T07:43:07;8.63;;;4.00;;
66380;SDS011;53177;52.648;1.214;2023-07-13T07:45:34;8.13;;;4.17;;
66380;SDS011;53177;52.648;1.214;2023-07-13T07:47:59;9.88;;;4.30;;
66380;SDS011;53177;52.648;1.214;2023-07-13T07:50:26;9.75;;;4.28;;
66380;SDS011;53177;52.648;1.214;2023-07-13T07:52:53;9.67;;;4.40;;
66380;SDS011;53177;52.648;1.214;2023-07-13T07:55:21;12.10;;;4.68;;
66380;SDS011;53177;52.648;1.214;2023-07-13T07:57:47;9.02;;;3.90;;
66380;SDS011;53177;52.648;1.214;2023-07-13T08:00:13;11.47;;;4.20;;
66380;SDS011;53177;52.648;1.214;2023-07-13T08:02:40;14.50;;;4.18;;
66380;SDS011;53177;52.648;1.214;2023-07-13T08:05:06;12.70;;;4.30;;
66380;SDS011;53177;52.648;1.214;2023-07-13T08:07:32;9.95;;;4.20;;
66380;SDS011;53177;52.648;1.214;2023-07-13T08:09:58;11.80;;;4.30;;
66380;SDS011;53177;52.648;1.214;2023-07-13T08:12:23;9.10;;;3.90;;
66380;SDS011;53177;52.648;1.214;2023-07-13T08:14:52;7.50;;;3.77;;
66380;SDS011;53177;52.648;1.214;2023-07-13T08:17:22;9.65;;;4.00;;
66380;SDS011;53177;52.648;1.214;2023-07-13T08:19:48;10.20;;;3.72;;
66380;SDS011;53177;52.648;1.214;2023-07-13T08:22:14;9.63;;;3.60;;
66380;SDS011;53177;52.648;1.214;2023-07-13T08:24:40;9.27;;;3.60;;
66380;SDS011;53177;52.648;1.214;2023-07-13T08:27:07;9.60;;;3.53;;
66380;SDS011;53177;52.648;1.214;2023-07-13T08:29:32;10.57;;;3.30;;
66380;SDS011;53177;52.648;1.214;2023-07-13T08:31:58;8.80;;;3.90;;
66380;SDS011;53177;52.648;1.214;2023-07-13T08:34:23;8.87;;;3.47;;
66380;SDS011;53177;52.648;1.214;2023-07-13T08:36:48;9.63;;;3.67;;
66380;SDS011;53177;52.648;1.214;2023-07-13T08:39:14;10.83;;;4.13;;
66380;SDS011;53177;52.648;1.214;2023-07-13T08:41:42;8.17;;;3.77;;
66380;SDS011;53177;52.648;1.214;2023-07-13T08:44:22;7.55;;;3.45;;
66380;SDS011;53177;52.648;1.214;2023-07-13T08:46:55;8.73;;;3.90;;
66380;SDS011;53177;52.648;1.214;2023-07-13T08:49:24;8.38;;;4.00;;
66380;SDS011;53177;52.648;1.214;2023-07-13T08:51:53;8.35;;;4.38;;
66380;SDS011;53177;52.648;1.214;2023-07-13T08:54:28;8.70;;;4.30;;
66380;SDS011;53177;52.648;1.214;2023-07-13T08:56:55;7.25;;;4.00;;
66380;SDS011;53177;52.648;1.214;2023-07-13T08:59:24;9.30;;;4.43;;
66380;SDS011;53177;52.648;1.214;2023-07-13T09:04:37;11.32;;;5.30;;
66380;SDS011;53177;52.648;1.214;2023-07-13T09:09:42;7.68;;;3.60;;
66380;SDS011;53177;52.648;1.214;2023-07-13T09:14:53;11.40;;;4.38;;
66380;SDS011;53177;52.648;1.214;2023-07-13T09:17:29;7.18;;;3.78;;
66380;SDS011;53177;52.648;1.214;2023-07-13T09:23:04;7.65;;;3.33;;
66380;SDS011;53177;52.648;1.214;2023-07-13T09:25:33;7.85;;;3.47;;
66380;SDS011;53177;52.648;1.214;2023-07-13T09:28:42;9.88;;;3.53;;
66380;SDS011;53177;52.648;1.214;2023-07-13T09:31:14;7.97;;;3.15;;
66380;SDS011;53177;52.648;1.214;2023-07-13T09:33:51;8.17;;;3.10;;
66380;SDS011;53177;52.648;1.214;2023-07-13T09:36:32;7.45;;;3.00;;
66380;SDS011;53177;52.648;1.214;2023-07-13T09:41:38;8.20;;;3.03;;
66380;SDS011;53177;52.648;1.214;2023-07-13T09:46:37;6.10;;;2.50;;
66380;SDS011;53177;52.648;1.214;2023-07-13T09:49:03;8.90;;;2.40;;
66380;SDS011;53177;52.648;1.214;2023-07-13T09:51:29;6.43;;;2.60;;
66380;SDS011;53177;52.648;1.214;2023-07-13T09:53:54;7.93;;;2.87;;
66380;SDS011;53177;52.648;1.214;2023-07-13T09:56:21;7.10;;;3.00;;
66380;SDS011;53177;52.648;1.214;2023-07-13T09:58:47;7.32;;;2.50;;
66380;SDS011;53177;52.648;1.214;2023-07-13T10:01:13;7.35;;;2.72;;
66380;SDS011;53177;52.648;1.214;2023-07-13T10:03:39;7.77;;;2.70;;
66380;SDS011;53177;52.648;1.214;2023-07-13T10:06:17;7.23;;;2.60;;
66380;SDS011;53177;52.648;1.214;2023-07-13T10:08:45;6.50;;;2.20;;
66380;SDS011;53177;52.648;1.214;2023-07-13T10:11:18;6.72;;;2.50;;
66380;SDS011;53177;52.648;1.214;2023-07-13T10:16:22;5.70;;;2.50;;
66380;SDS011;53177;52.648;1.214;2023-07-13T10:18:50;5.70;;;2.40;;
66380;SDS011;53177;52.648;1.214;2023-07-13T10:21:21;6.78;;;2.28;;
66380;SDS011;53177;52.648;1.214;2023-07-13T10:23:56;6.05;;;2.20;;
66380;SDS011;53177;52.648;1.214;2023-07-13T10:26:32;11.95;;;3.83;;
66380;SDS011;53177;52.648;1.214;2023-07-13T10:29:01;10.27;;;3.13;;
66380;SDS011;53177;52.648;1.214;2023-07-13T10:31:36;6.37;;;2.30;;
66380;SDS011;53177;52.648;1.214;2023-07-13T10:34:03;6.82;;;2.08;;
66380;SDS011;53177;52.648;1.214;2023-07-13T10:36:34;5.95;;;2.05;;
66380;SDS011;53177;52.648;1.214;2023-07-13T10:39:04;5.60;;;2.13;;
66380;SDS011;53177;52.648;1.214;2023-07-13T10:41:31;6.68;;;2.00;;
66380;SDS011;53177;52.648;1.214;2023-07-13T10:44:01;5.33;;;1.90;;
66380;SDS011;53177;52.648;1.214;2023-07-13T10:46:28;7.20;;;2.10;;
66380;SDS011;53177;52.648;1.214;2023-07-13T10:48:57;6.30;;;1.80;;
66380;SDS011;53177;52.648;1.214;2023-07-13T10:51:25;5.03;;;2.10;;
66380;SDS011;53177;52.648;1.214;2023-07-13T10:54:10;6.03;;;1.85;;
66380;SDS011;53177;52.648;1.214;2023-07-13T10:56:36;5.63;;;1.87;;
66380;SDS011;53177;52.648;1.214;2023-07-13T10:59:11;6.03;;;2.30;;
66380;SDS011;53177;52.648;1.214;2023-07-13T11:01:54;6.68;;;2.40;;
66380;SDS011;53177;52.648;1.214;2023-07-13T11:04:22;6.70;;;2.10;;
66380;SDS011;53177;52.648;1.214;2023-07-13T11:06:50;9.45;;;2.60;;
66380;SDS011;53177;52.648;1.214;2023-07-13T11:09:37;5.73;;;2.00;;
66380;SDS011;53177;52.648;1.214;2023-07-13T11:19:53;8.70;;;2.73;;
66380;SDS011;53177;52.648;1.214;2023-07-13T11:22:43;7.40;;;2.20;;
66380;SDS011;53177;52.648;1.214;2023-07-13T11:25:29;6.60;;;2.50;;
66380;SDS011;53177;52.648;1.214;2023-07-13T11:28:17;6.63;;;3.03;;
66380;SDS011;53177;52.648;1.214;2023-07-13T11:30:44;7.53;;;2.15;;
66380;SDS011;53177;52.648;1.214;2023-07-13T11:33:15;6.68;;;2.20;;
66380;SDS011;53177;52.648;1.214;2023-07-13T11:36:29;7.28;;;2.63;;
66380;SDS011;53177;52.648;1.214;2023-07-13T11:38:58;5.73;;;2.10;;
66380;SDS011;53177;52.648;1.214;2023-07-13T11:41:26;5.53;;;1.95;;
66380;SDS011;53177;52.648;1.214;2023-07-13T11:44:01;5.28;;;1.90;;
66380;SDS011;53177;52.648;1.214;2023-07-13T11:46:31;5.25;;;1.80;;
66380;SDS011;53177;52.648;1.214;2023-07-13T11:48:56;4.97;;;1.87;;
66380;SDS011;53177;52.648;1.214;2023-07-13T11:51:29;4.57;;;1.90;;
66380;SDS011;53177;52.648;1.214;2023-07-13T11:53:57;5.88;;;2.10;;
66380;SDS011;53177;52.648;1.214;2023-07-13T11:56:26;6.15;;;2.20;;
66380;SDS011;53177;52.648;1.214;2023-07-13T11:58:53;5.10;;;1.70;;
66380;SDS011;53177;52.648;1.214;2023-07-13T12:01:22;5.30;;;1.70;;
66380;SDS011;53177;52.648;1.214;2023-07-13T12:03:51;5.10;;;1.70;;
66380;SDS011;53177;52.648;1.214;2023-07-13T12:06:29;6.83;;;1.90;;
66380;SDS011;53177;52.648;1.214;2023-07-13T12:09:02;4.40;;;1.70;;
66380;SDS011;53177;52.648;1.214;2023-07-13T12:11:38;5.00;;;1.63;;
66380;SDS011;53177;52.648;1.214;2023-07-13T12:14:05;6.00;;;1.85;;
66380;SDS011;53177;52.648;1.214;2023-07-13T12:16:31;7.77;;;3.37;;
66380;SDS011;53177;52.648;1.214;2023-07-13T12:18:58;5.63;;;2.50;;
66380;SDS011;53177;52.648;1.214;2023-07-13T12:21:33;5.93;;;2.20;;
66380;SDS011;53177;52.648;1.214;2023-07-13T12:24:02;6.30;;;2.87;;
66380;SDS011;53177;52.648;1.214;2023-07-13T12:26:29;6.78;;;2.45;;
66380;SDS011;53177;52.648;1.214;2023-07-13T12:29:00;7.35;;;2.60;;
66380;SDS011;53177;52.648;1.214;2023-07-13T12:31:37;8.25;;;2.40;;
66380;SDS011;53177;52.648;1.214;2023-07-13T12:34:16;6.05;;;2.35;;
66380;SDS011;53177;52.648;1.214;2023-07-13T12:36:47;6.40;;;2.43;;
66380;SDS011;53177;52.648;1.214;2023-07-13T12:39:18;6.82;;;2.28;;
66380;SDS011;53177;52.648;1.214;2023-07-13T12:41:47;7.10;;;3.38;;
66380;SDS011;53177;52.648;1.214;2023-07-13T12:44:15;10.55;;;4.07;;
66380;SDS011;53177;52.648;1.214;2023-07-13T12:46:58;5.97;;;2.97;;
66380;SDS011;53177;52.648;1.214;2023-07-13T12:49:39;5.27;;;2.13;;
66380;SDS011;53177;52.648;1.214;2023-07-13T12:52:10;4.72;;;2.28;;
66380;SDS011;53177;52.648;1.214;2023-07-13T12:54:57;5.07;;;2.13;;
66380;SDS011;53177;52.648;1.214;2023-07-13T12:57:31;5.28;;;2.38;;
66380;SDS011;53177;52.648;1.214;2023-07-13T12:59:56;4.93;;;1.97;;
66380;SDS011;53177;52.648;1.214;2023-07-13T13:02:32;5.23;;;2.00;;
66380;SDS011;53177;52.648;1.214;2023-07-13T13:05:02;4.20;;;1.80;;
66380;SDS011;53177;52.648;1.214;2023-07-13T13:07:29;5.93;;;2.03;;
66380;SDS011;53177;52.648;1.214;2023-07-13T13:09:54;4.80;;;2.30;;
66380;SDS011;53177;52.648;1.214;2023-07-13T13:12:20;6.30;;;2.50;;
66380;SDS011;53177;52.648;1.214;2023-07-13T13:14:45;4.47;;;2.20;;
66380;SDS011;53177;52.648;1.214;2023-07-13T13:17:21;5.97;;;1.87;;
66380;SDS011;53177;52.648;1.214;2023-07-13T13:19:50;6.13;;;1.70;;
66380;SDS011;53177;52.648;1.214;2023-07-13T13:22:18;5.50;;;1.85;;
66380;SDS011;53177;52.648;1.214;2023-07-13T13:24:43;4.80;;;1.77;;
66380;SDS011;53177;52.648;1.214;2023-07-13T13:27:13;6.77;;;2.30;;
66380;SDS011;53177;52.648;1.214;2023-07-13T13:29:42;6.13;;;2.13;;
66380;SDS011;53177;52.648;1.214;2023-07-13T13:32:09;4.13;;;1.77;;
66380;SDS011;53177;52.648;1.214;2023-07-13T13:34:37;5.63;;;2.00;;
66380;SDS011;53177;52.648;1.214;2023-07-13T13:37:02;4.40;;;1.90;;
66380;SDS011;53177;52.648;1.214;2023-07-13T13:39:35;6.17;;;2.27;;
66380;SDS011;53177;52.648;1.214;2023-07-13T13:42:01;5.25;;;2.38;;
66380;SDS011;53177;52.648;1.214;2023-07-13T13:44:27;5.82;;;2.47;;
66380;SDS011;53177;52.648;1.214;2023-07-13T13:46:53;5.93;;;2.87;;
66380;SDS011;53177;52.648;1.214;2023-07-13T13:49:24;5.70;;;2.90;;
66380;SDS011;53177;52.648;1.214;2023-07-13T13:51:51;8.87;;;3.17;;
66380;SDS011;53177;52.648;1.214;2023-07-13T13:54:17;8.13;;;3.20;;
66380;SDS011;53177;52.648;1.214;2023-07-13T13:56:45;9.55;;;3.70;;
66380;SDS011;53177;52.648;1.214;2023-07-13T13:59:12;8.50;;;3.92;;
66380;SDS011;53177;52.648;1.214;2023-07-13T14:01:39;7.13;;;3.55;;
66380;SDS011;53177;52.648;1.214;2023-07-13T14:04:08;7.70;;;3.40;;
66380;SDS011;53177;52.648;1.214;2023-07-13T14:06:40;7.93;;;3.40;;
66380;SDS011;53177;52.648;1.214;2023-07-13T14:09:09;6.75;;;3.10;;
66380;SDS011;53177;52.648;1.214;2023-07-13T14:11:37;6.00;;;3.00;;
66380;SDS011;53177;52.648;1.214;2023-07-13T14:14:04;6.57;;;2.70;;
66380;SDS011;53177;52.648;1.214;2023-07-13T14:16:30;5.33;;;2.50;;
66380;SDS011;53177;52.648;1.214;2023-07-13T14:18:58;7.45;;;2.60;;
66380;SDS011;53177;52.648;1.214;2023-07-13T14:21:26;5.80;;;2.60;;
66380;SDS011;53177;52.648;1.214;2023-07-13T14:23:53;4.80;;;2.22;;
66380;SDS011;53177;52.648;1.214;2023-07-13T14:26:25;6.20;;;2.40;;
66380;SDS011;53177;52.648;1.214;2023-07-13T14:28:55;6.40;;;2.75;;
66380;SDS011;53177;52.648;1.214;2023-07-13T14:31:23;7.15;;;2.67;;
66380;SDS011;53177;52.648;1.214;2023-07-13T14:33:53;5.00;;;2.23;;
66380;SDS011;53177;52.648;1.214;2023-07-13T14:39:13;6.68;;;2.72;;
66380;SDS011;53177;52.648;1.214;2023-07-13T14:41:40;7.13;;;3.20;;
66380;SDS011;53177;52.648;1.214;2023-07-13T14:44:15;7.25;;;3.25;;
66380;SDS011;53177;52.648;1.214;2023-07-13T14:46:42;7.30;;;3.87;;
66380;SDS011;53177;52.648;1.214;2023-07-13T14:49:15;7.18;;;3.17;;
66380;SDS011;53177;52.648;1.214;2023-07-13T14:51:59;6.95;;;3.10;;
66380;SDS011;53177;52.648;1.214;2023-07-13T14:54:26;8.48;;;3.00;;
66380;SDS011;53177;52.648;1.214;2023-07-13T14:56:52;6.67;;;2.77;;
66380;SDS011;53177;52.648;1.214;2023-07-13T14:59:18;6.15;;;2.63;;
66380;SDS011;53177;52.648;1.214;2023-07-13T15:01:46;5.80;;;2.60;;
66380;SDS011;53177;52.648;1.214;2023-07-13T15:04:13;6.50;;;2.50;;
66380;SDS011;53177;52.648;1.214;2023-07-13T15:09:40;5.82;;;2.47;;
66380;SDS011;53177;52.648;1.214;2023-07-13T15:12:06;6.80;;;2.40;;
66380;SDS011;53177;52.648;1.214;2023-07-13T15:14:32;7.10;;;2.25;;
66380;SDS011;53177;52.648;1.214;2023-07-13T15:16:57;6.03;;;2.43;;
66380;SDS011;53177;52.648;1.214;2023-07-13T15:19:23;5.68;;;2.20;;
66380;SDS011;53177;52.648;1.214;2023-07-13T15:21:50;5.70;;;2.35;;
66380;SDS011;53177;52.648;1.214;2023-07-13T15:24:17;5.35;;;2.50;;